• Join FlightAware (Why Join?)
  • Login
  • US Flag 
10:07PM EDT


 

Airport Tracker/Info


-or-


 

Live Flight TrackerFlight Track Log ✈ UAL33 ✈ 29-Mar-2014 ✈ RJAA / NRT - KLAX

Flight Track Log - Related Links

Times and Time Zones

All times are in EDT time to prevent confusion due to time zone crossing. See the UAL33 flight status page for this flight to view local times or setup timezone preferences in your user account.

Time Position Orientation Groundspeed Altitude Reporting Facility
EDT Latitude Longitude Course Direction KTS MPH feet Rate Location/Type
04:44AM 35.7210 140.4075 149° Southeast 185 213 1,600  Level FlightAware ADS-B
04:45AM 35.6907 140.4286 149° Southeast 190 219 3,100 1,920 Climbing FlightAware ADS-B
04:45AM 35.6734 140.4407 149° Southeast 210 242 3,500 1,140 Climbing FlightAware ADS-B
04:45AM 35.6532 140.4554 149° Southeast 243 280 3,900 1,020 Climbing FlightAware ADS-B
04:46AM 35.6374 140.4670 149° Southeast 266 306 4,300 1,380 Climbing FlightAware ADS-B (RJTF)
04:46AM 35.6186 140.4806 149° Southeast 273 314 4,900 2,400 Climbing FlightAware ADS-B (RJTF)
04:46AM 35.6028 140.4921 149° Southeast 274 315 5,600 4,500 Climbing FlightAware ADS-B (RJTF)
04:46AM 35.5900 140.5015 150° Southeast 279 321 6,100 2,700 Climbing FlightAware ADS-B
04:47AM 35.5797 140.5089 149° Southeast 280 322 6,500 2,400 Climbing FlightAware ADS-B (RJTF)
04:47AM 35.5656 140.5231 130° Southeast 286 329 7,000 2,400 Climbing FlightAware ADS-B
04:47AM 35.5608 140.5316 121° Southeast 295 339 7,300 1,320 Climbing FlightAware ADS-B (RJTF)
04:47AM 35.5584 140.5373 115° Southeast 297 342 7,500 3,240 Climbing FlightAware ADS-B (RJTF)
04:47AM 35.5512 140.5843 96° East 304 350 8,500 2,100 Climbing FlightAware ADS-B
04:48AM 35.5488 140.6070 97° East 306 352 8,900 660 Climbing FlightAware ADS-B (RJTF)
04:48AM 35.5448 140.6434 97° East 317 365 9,000 120 Climbing FlightAware ADS-B (RJTF)
04:48AM 35.5416 140.6718 97° East 316 364 9,000  Level FlightAware ADS-B (RJTF)
04:49AM 35.5373 140.7107 97° East 313 360 9,000  Level FlightAware ADS-B (RJTF)
04:49AM 35.5328 140.7494 98° East 315 362 9,000 540 Level FlightAware ADS-B (RJTF)
04:50AM 35.5255 140.8111 98° East 317 365 9,500 1,320 Climbing FlightAware ADS-B (RJTF)
04:50AM 35.5139 140.9095 98° East 364 419 10,700 1,560 Climbing FlightAware ADS-B
04:51AM 35.5038 140.9944 97° East 393 452 11,700 1,500 Climbing FlightAware ADS-B
04:51AM 35.5004 141.0232 98° East 397 457 12,300 2,700 Climbing FlightAware ADS-B (RJTF)
04:52AM 35.4922 141.0848 102° East 398 458 13,600 3,060 Climbing FlightAware ADS-B
04:52AM 35.4694 141.1727 110° East 410 472 15,300 2,040 Climbing FlightAware ADS-B
04:53AM 35.4435 141.2576 109° East 430 495 16,200 1,560 Climbing FlightAware ADS-B
04:54AM 35.4140 141.3541 109° East 449 517 17,400 2,040 Climbing FlightAware ADS-B
04:54AM 35.3852 141.4550 102° East 458 527 19,100 2,220 Climbing FlightAware ADS-B
04:55AM 35.3821 141.4989 87° East 460 529 19,600 1,980 Climbing FlightAware ADS-B
04:55AM 35.4007 141.6076 76° East 466 536 21,100 1,920 Climbing FlightAware ADS-B
04:56AM 35.4224 141.7107 76° East 474 545 22,300 1,800 Climbing FlightAware ADS-B
04:57AM 35.4441 141.8143 77° East 479 551 23,500 1,560 Climbing FlightAware ADS-B
04:57AM 35.4653 141.9155 77° East 490 564 24,400 1,380 Climbing FlightAware ADS-B
04:58AM 35.4889 142.0303 77° East 500 575 25,400 1,380 Climbing FlightAware ADS-B
04:59AM 35.5108 142.1378 77° East 508 585 26,300 1,380 Climbing FlightAware ADS-B
04:59AM 35.5350 142.2551 77° East 515 593 27,300 1,320 Climbing FlightAware ADS-B
05:00AM 35.5623 142.3893 76° East 525 604 28,300 1,020 Climbing FlightAware ADS-B
05:01AM 35.5872 142.5124 76° East 537 618 28,900 1,080 Climbing FlightAware ADS-B
05:05AM 35.7327 143.2482 77° East 562 647 33,400  Climbing FlightAware ADS-B
05:07AM 35.8030 143.5348 73° East  Level FlightAware Approximate
05:08AM 35.8440 143.7036 73° East  Level FlightAware Approximate
05:09AM 35.9202 143.8528 78° East  Level Estimated
05:10AM 35.9461 144.0264 80° East  Level FlightAware Approximate
05:11AM 35.9716 144.2000 80° East  Level FlightAware Approximate
05:12AM 35.9969 144.3739 80° East  Level FlightAware Approximate
05:13AM 36.0220 144.5478 80° East  Level FlightAware Approximate
05:14AM 36.0468 144.7218 80° East  Level FlightAware Approximate
05:15AM 36.0714 144.8960 80° East  Level FlightAware Approximate
05:16AM 36.0957 145.0702 80° East  Level FlightAware Approximate
05:17AM 36.1197 145.2446 80° East  Level FlightAware Approximate
05:18AM 36.1435 145.4190 80° East  Level FlightAware Approximate
05:19AM 36.2180 145.5705 73° East  Level Estimated
05:20AM 36.2924 145.7222 68° East  Level Estimated
05:21AM 36.3258 145.8949 76° East  Level FlightAware Approximate
05:22AM 36.3590 146.0678 77° East  Level FlightAware Approximate
05:23AM 36.3919 146.2408 77° East  Level FlightAware Approximate
05:24AM 36.4655 146.3935 74° East  Level Estimated
05:25AM 36.5017 146.5657 75° East  Level FlightAware Approximate
05:26AM 36.5378 146.7381 75° East  Level FlightAware Approximate
05:27AM 36.5735 146.9107 75° East  Level FlightAware Approximate
05:28AM 36.6090 147.0834 76° East  Level FlightAware Approximate
05:29AM 36.6443 147.2563 76° East  Level FlightAware Approximate
05:30AM 36.6793 147.4294 76° East  Level FlightAware Approximate
05:31AM 36.7141 147.6026 76° East  Level FlightAware Approximate
05:32AM 36.7486 147.7759 76° East  Level FlightAware Approximate
05:33AM 36.7829 147.9494 76° East  Level FlightAware Approximate
05:34AM 36.8169 148.1231 76° East  Level FlightAware Approximate
05:35AM 36.8506 148.2969 76° East  Level FlightAware Approximate
05:36AM 36.9218 148.4522 84° East  Level Estimated
05:37AM 36.9319 148.6308 86° East  Level FlightAware Approximate
05:38AM 36.9417 148.8095 86° East  Level FlightAware Approximate
05:39AM 36.9512 148.9883 86° East  Level FlightAware Approximate
05:40AM 36.9604 149.1670 86° East  Level FlightAware Approximate
05:41AM 36.9694 149.3458 86° East  Level FlightAware Approximate
05:42AM 36.9781 149.5247 86° East  Level FlightAware Approximate
05:43AM 36.9866 149.7036 87° East  Level FlightAware Approximate
05:44AM 36.9948 149.8825 87° East  Level FlightAware Approximate
05:45AM 37.0642 150.0393 66° East  Level Estimated
05:46AM 37.1217 150.2037 66° East  Level FlightAware Approximate
05:47AM 37.1789 150.3684 66° East  Level FlightAware Approximate
05:48AM 37.2358 150.5333 66° East  Level FlightAware Approximate
05:49AM 37.2926 150.6984 67° East  Level FlightAware Approximate
05:50AM 37.3491 150.8638 67° East  Level FlightAware Approximate
05:51AM 37.4054 151.0294 67° East  Level FlightAware Approximate
05:52AM 37.4615 151.1953 67° East  Level FlightAware Approximate
05:53AM 37.5173 151.3615 67° East  Level FlightAware Approximate
05:54AM 37.5729 151.5278 67° East  Level FlightAware Approximate
05:55AM 37.6283 151.6945 67° East  Level FlightAware Approximate
05:56AM 37.6834 151.8613 67° East  Level FlightAware Approximate
05:57AM 37.7383 152.0285 67° East  Level FlightAware Approximate
05:58AM 37.7929 152.1958 68° East  Level FlightAware Approximate
05:59AM 37.8474 152.3635 68° East  Level FlightAware Approximate
06:00AM 37.9015 152.5313 68° East  Level FlightAware Approximate
06:01AM 37.9555 152.6994 68° East  Level FlightAware Approximate
06:02AM 38.0092 152.8678 68° East  Level FlightAware Approximate
06:03AM 38.0626 153.0364 68° East  Level FlightAware Approximate
06:04AM 38.1159 153.2053 68° East  Level FlightAware Approximate
06:05AM 38.1688 153.3744 68° East  Level FlightAware Approximate
06:06AM 38.2216 153.5437 68° East  Level FlightAware Approximate
06:07AM 38.2741 153.7133 68° East  Level FlightAware Approximate
06:08AM 38.3263 153.8831 69° East  Level FlightAware Approximate
06:09AM 38.3783 154.0532 69° East  Level FlightAware Approximate
06:10AM 38.4301 154.2236 69° East  Level FlightAware Approximate
06:11AM 38.4816 154.3941 69° East  Level FlightAware Approximate
06:12AM 38.5328 154.5649 69° East  Level FlightAware Approximate
06:13AM 38.5839 154.7360 69° East  Level FlightAware Approximate
06:14AM 38.6346 154.9073 69° East  Level FlightAware Approximate
06:15AM 38.6851 155.0788 69° East  Level FlightAware Approximate
06:16AM 38.7354 155.2506 69° East  Level FlightAware Approximate
06:17AM 38.7854 155.4226 69° East  Level FlightAware Approximate
06:18AM 38.8352 155.5949 70° East  Level FlightAware Approximate
06:19AM 38.8847 155.7674 70° East  Level FlightAware Approximate
06:20AM 38.9339 155.9401 70° East  Level FlightAware Approximate
06:21AM 38.9829 156.1131 70° East  Level FlightAware Approximate
06:22AM 39.0317 156.2863 70° East  Level FlightAware Approximate
06:23AM 39.0801 156.4598 70° East  Level FlightAware Approximate
06:24AM 39.1284 156.6335 70° East  Level FlightAware Approximate
06:25AM 39.1763 156.8074 70° East  Level FlightAware Approximate
06:26AM 39.2240 156.9816 70° East  Level FlightAware Approximate
06:27AM 39.2715 157.1560 71° East  Level FlightAware Approximate
06:28AM 39.3187 157.3306 71° East  Level FlightAware Approximate
06:29AM 39.3656 157.5055 71° East  Level FlightAware Approximate
06:30AM 39.4123 157.6806 71° East  Level FlightAware Approximate
06:31AM 39.4587 157.8560 71° East  Level FlightAware Approximate
06:32AM 39.5048 158.0316 71° East  Level FlightAware Approximate
06:33AM 39.5507 158.2074 71° East  Level FlightAware Approximate
06:34AM 39.5963 158.3834 71° East  Level FlightAware Approximate
06:35AM 39.6416 158.5597 71° East  Level FlightAware Approximate
06:36AM 39.6867 158.7362 72° East  Level FlightAware Approximate
06:37AM 39.7315 158.9129 72° East  Level FlightAware Approximate
06:38AM 39.7761 159.0899 72° East  Level FlightAware Approximate
06:39AM 39.8203 159.2671 72° East  Level FlightAware Approximate
06:40AM 39.8643 159.4445 72° East  Level FlightAware Approximate
06:41AM 39.9080 159.6219 72° East  Level FlightAware Approximate
06:42AM 39.9514 159.7994 72° East  Level FlightAware Approximate
06:43AM 40.0076 159.9709 65° Northeast  Level Estimated
06:44AM 40.0651 160.1418 66° East  Level FlightAware Approximate
06:45AM 40.1223 160.3129 66° East  Level FlightAware Approximate
06:46AM 40.1793 160.4843 66° East  Level FlightAware Approximate
06:47AM 40.2360 160.6561 67° East  Level FlightAware Approximate
06:48AM 40.2910 160.8290 65° Northeast  Level Estimated
06:49AM 40.3501 160.9996 65° Northeast  Level FlightAware Approximate
06:50AM 40.4090 161.1705 66° East  Level FlightAware Approximate
06:51AM 40.4677 161.3417 66° East  Level FlightAware Approximate
06:52AM 40.5261 161.5132 66° East  Level FlightAware Approximate
06:53AM 40.5843 161.6850 66° East  Level FlightAware Approximate
06:54AM 40.6422 161.8571 66° East  Level FlightAware Approximate
06:55AM 40.6999 162.0295 66° East  Level FlightAware Approximate
06:56AM 40.7573 162.2022 66° East  Level FlightAware Approximate
06:57AM 40.8144 162.3751 66° East  Level FlightAware Approximate
06:58AM 40.8713 162.5484 66° East  Level FlightAware Approximate
06:59AM 40.9279 162.7220 67° East  Level FlightAware Approximate
07:00AM 40.9843 162.8959 67° East  Level FlightAware Approximate
07:01AM 41.0404 163.0701 67° East  Level FlightAware Approximate
07:02AM 41.0962 163.2446 67° East  Level FlightAware Approximate
07:03AM 41.1518 163.4193 67° East  Level FlightAware Approximate
07:04AM 41.2071 163.5944 67° East  Level FlightAware Approximate
07:05AM 41.2622 163.7697 67° East  Level FlightAware Approximate
07:06AM 41.3169 163.9454 67° East  Level FlightAware Approximate
07:07AM 41.3714 164.1214 68° East  Level FlightAware Approximate
07:08AM 41.4257 164.2976 68° East  Level FlightAware Approximate
07:08AM 41.3333 163.9500 68° East 514 592 34,000  Level Oakland Oceanic (ODAPS)
07:16AM 42.0333 166.3333 69° East 509 586 34,000  Level Oakland Oceanic (ODAPS)
07:37AM 43.0500 170.2000 71° East 586 674 34,000  Level Oakland Oceanic (ODAPS)
07:44AM 43.3833 171.5667 72° East 556 640 34,000  Level Oakland Oceanic (ODAPS)
07:57AM 44.0167 174.4167 74° East 574 661 34,000  Level Oakland Oceanic (ODAPS)
08:11AM 44.5833 177.4333 76° East 589 678 35,000  Climbing Oakland Oceanic (ODAPS)
08:23AM 45.0000 180.0000 86° East 593 682 35,000  Level Oakland Oceanic (ODAPS)
08:25AM 45.0167 -179.4167 87° East 595 685 35,000  Level Oakland Oceanic (ODAPS)
08:39AM 45.1000 -176.2000 89° East 597 687 35,000  Level Oakland Oceanic (ODAPS)
08:53AM 45.0833 -172.9500 91° East 604 695 35,000  Level Oakland Oceanic (ODAPS)
09:05AM 45.0000 -170.0000 94° East 595 685 35,000  Level Oakland Oceanic (ODAPS)
09:07AM 44.9833 -169.6500 95° East 595 685 35,000  Level Oakland Oceanic (ODAPS)
09:21AM 44.7333 -166.3500 97° East 603 694 35,000  Level Oakland Oceanic (ODAPS)
09:35AM 44.4000 -163.0667 99° East 606 697 35,000  Level Oakland Oceanic (ODAPS)
09:48AM 44.0000 -160.0000 94° East 570 656 35,000  Level Oakland Oceanic (ODAPS)
09:48AM 44.0000 -159.9500 94° East 567 652 35,000  Level Oakland Oceanic (ODAPS)
09:58AM 43.8667 -157.8667 96° East 564 649 35,000  Level Oakland Oceanic (ODAPS)
10:02AM 43.7833 -156.9667 96° East 564 649 35,000  Level Oakland Oceanic (ODAPS)
10:16AM 43.5167 -154.0000 99° East 560 644 35,000  Level Oakland Oceanic (ODAPS)
10:30AM 43.1500 -151.1000 100° East 552 635 35,000  Level Oakland Oceanic (ODAPS)
10:35AM 43.0000 -150.0000 102° East 554 638 35,000  Level Oakland Oceanic (ODAPS)
10:44AM 42.7000 -148.1667 103° East 528 608 35,000  Level Oakland Oceanic (ODAPS)
10:47AM 42.6333 -147.7167 103° East 528 608 35,000  Level Oakland Oceanic (ODAPS)
10:58AM 42.2167 -145.4833 105° East 544 626 35,000  Level Oakland Oceanic (ODAPS)
11:12AM 41.6667 -142.8000 107° East 545 627 35,000  Level Oakland Oceanic (ODAPS)
11:25AM 41.0333 -140.1333 108° East 534 615 35,000  Level Oakland Oceanic (ODAPS)
11:26AM 41.0000 -140.0000 103° East 547 629 35,000  Level Oakland Oceanic (ODAPS)
11:39AM 40.5333 -137.5000 105° East 544 626 35,000  Level Oakland Oceanic (ODAPS)
11:53AM 39.9833 -134.9333 107° East 540 621 35,000  Level Oakland Oceanic (ODAPS)
12:07PM 39.3667 -132.4000 108° East 543 625 35,000  Level Oakland Oceanic (ODAPS)
12:21PM 38.7000 -129.8667 110° East 548 631 35,000 -60 Level Oakland Oceanic (ODAPS)
12:34PM 37.9953 -127.4711 109° East 551 634 34,900  Descending Oakland Center
12:35PM 37.9600 -127.3547 111° Southeast 548 631 35,000 180 Climbing FlightAware Transoceanic
12:35PM 37.9667 -127.3667 112° Southeast 550 633 35,000 -180 Level Oakland Oceanic (ODAPS)
12:35PM 37.9403 -127.2936 112° Southeast 547 629 34,900  Descending Oakland Center
12:36PM 37.9052 -127.1772 111° Southeast 548 631 35,000  Climbing FlightAware Transoceanic
12:36PM 37.8750 -127.0783 111° Southeast 547 629 34,900  Descending Oakland Center
12:37PM 37.8500 -127.0000 109° East 548 631 35,000 60 Climbing FlightAware Transoceanic
12:37PM 37.8206 -126.8992 111° Southeast 548 631 35,000  Level Oakland Center
12:38PM 37.8001 -126.8197 109° East 548 631 35,000 -120 Level FlightAware Transoceanic
12:38PM 37.7708 -126.7142 109° East 550 633 34,900  Descending Oakland Center
12:39PM 37.7500 -126.6397 109° East 548 631 35,000 60 Climbing FlightAware Transoceanic
12:39PM 37.7261 -126.5542 109° East 552 635 35,000  Level Oakland Center
12:40PM 37.6656 -126.3361 109° East 553 636 35,000 -60 Level Oakland Center
12:41PM 37.6139 -126.1544 110° East 553 636 34,900 -60 Descending Oakland Center
12:42PM 37.5608 -125.9722 110° East 553 636 34,900  Level Oakland Center
12:43PM 37.5089 -125.7886 110° East 553 636 35,000  Climbing Oakland Center
12:44PM 37.4550 -125.6078 111° Southeast 554 638 35,000 -60 Level Oakland Center
12:45PM 37.4039 -125.4267 110° East 554 638 34,900 -60 Descending Oakland Center
12:46PM 37.3497 -125.2456 111° Southeast 554 638 34,900  Level Oakland Center
12:47PM 37.2969 -125.0642 110° East 554 638 35,000  Climbing Oakland Center
12:48PM 37.2422 -124.8817 111° Southeast 556 640 35,000 -60 Level Oakland Center
12:49PM 37.1878 -124.7000 111° Southeast 557 641 34,900  Descending Oakland Center
12:51PM 37.1319 -124.5172 111° Southeast 559 643 35,000  Climbing Oakland Center
12:52PM 37.0678 -124.3022 110° East 557 641 35,000  Level Oakland Center
12:53PM 37.0128 -124.1233 111° Southeast 556 640 35,000  Level Oakland Center
12:54PM 36.9589 -123.9456 111° Southeast 554 638 35,000 -60 Level Oakland Center
12:55PM 36.9050 -123.7678 111° Southeast 553 636 34,900 -60 Descending Oakland Center
12:56PM 36.8475 -123.5875 112° Southeast 554 638 34,900  Level Oakland Center
12:57PM 36.7908 -123.4072 111° Southeast 555 639 34,900  Level Oakland Center
12:58PM 36.7339 -123.2269 111° Southeast 558 642 35,000  Climbing Oakland Center
01:01PM 36.5454 -122.6400 112° Southeast 537 618 35,000  Level FlightAware ADS-B
01:04PM 36.4341 -122.0940 1000° North 541 623 35,000  Level FlightAware ADS-B
01:04PM 36.4287 -122.0570 101° East 537 618 35,000  Level FlightAware ADS-B
01:05PM 36.4126 -121.9500 100° East 535 616 35,000  Level FlightAware ADS-B
01:05PM 36.3990 -121.8630 102° East 535 616 35,000  Level FlightAware ADS-B
01:05PM 36.3949 -121.8430 105° East 533 613 35,000  Level FlightAware ADS-B
01:09PM 36.1926 -121.2950 117° Southeast 523 602 35,000  Level FlightAware ADS-B
01:09PM 36.1492 -121.1890 117° Southeast 524 603 35,000  Level FlightAware ADS-B
01:10PM 36.0814 -121.0230 117° Southeast 530 610 35,000  Level FlightAware ADS-B
01:11PM 36.0131 -120.8570 117° Southeast 529 609 35,000  Level FlightAware ADS-B
01:12PM 35.9803 -120.7797 117° Southeast 530 610 35,000 -120 Level Oakland Center
01:13PM 35.9147 -120.6178 117° Southeast 530 610 34,900 -60 Descending Oakland Center
01:14PM 35.8478 -120.4572 117° Southeast 529 609 34,900  Level Oakland Center
01:15PM 35.7808 -120.2986 117° Southeast 522 601 35,000 -840 Climbing Oakland Center
01:21PM 35.2070 -119.5999 145° Southeast 496 571 29,100 -1,020 Descending FlightAware ADS-B
01:22PM 35.0775 -119.4878 145° Southeast 492 566 27,900 -1,680 Descending Oakland Center
01:28PM 34.4620 -118.9691 145° Southeast 369 425 17,200 -1,740 Descending FlightAware ADS-B
01:30PM 34.3446 -118.8781 157° South 352 405 14,900 -1,680 Descending FlightAware ADS-B
01:30PM 34.2838 -118.8545 163° South 343 395 13,800 -1,560 Descending FlightAware ADS-B
01:31PM 34.2170 -118.8299 163° South 337 388 12,700 -1,500 Descending FlightAware ADS-B
01:32PM 34.1534 -118.8065 163° South 334 384 11,700 -1,200 Descending FlightAware ADS-B
01:32PM 34.1085 -118.7900 163° South 316 364 11,200 -840 Descending FlightAware ADS-B
01:34PM 34.0313 -118.6824 96° East 305 351 9,900 -840 Descending FlightAware ADS-B
01:34PM 34.0272 -118.6381 96° East 302 348 9,700 -960 Descending FlightAware ADS-B
01:35PM 34.0204 -118.5629 96° East 297 342 8,900 -1,200 Descending FlightAware ADS-B
01:35PM 34.0175 -118.5325 96° East 294 338 8,500 -1,140 Descending FlightAware ADS-B
01:37PM 34.0163 -118.4194 82° East 287 330 7,200 -1,200 Descending FlightAware ADS-B
01:37PM 34.0233 -118.3583 82° East 277 319 6,300 -1,380 Descending FlightAware ADS-B
01:38PM 34.0275 -118.3208 82° East 263 303 5,800 -1,440 Descending FlightAware ADS-B
01:38PM 34.0305 -118.2946 82° East 251 289 5,400 -1,260 Descending FlightAware ADS-B
01:39PM 34.0365 -118.2381 83° East 203 234 4,500 -1,080 Descending FlightAware ADS-B
01:39PM 34.0406 -118.1914 88° East 188 216 3,900 -720 Descending FlightAware ADS-B
01:40PM 34.0380 -118.1771 134° Southeast 189 217 3,800 -180 Descending FlightAware ADS-B
01:40PM 34.0284 -118.1670 187° South 186 214 3,800  Level FlightAware ADS-B
01:40PM 34.0083 -118.1687 194° South 186 214 3,800 -480 Level FlightAware ADS-B (KSNA)
01:41PM 33.9778 -118.2022 238° Southwest 183 211 3,300 -780 Descending FlightAware ADS-B
01:41PM 33.9703 -118.2243 258° West 183 211 2,900 -600 Descending FlightAware ADS-B
01:42PM 33.9675 -118.2497 258° West 185 213 2,700 -780 Descending Los Angeles Center
01:43PM 33.9633 -118.3069 265° West 182 209 1,700 -960 Descending Los Angeles Center
01:44PM 33.9569 -118.3669 263° West 163 188 800 -720 Descending Los Angeles Center
01:45PM 33.9511 -118.4153 262° West 153 176 200 -600 Descending Los Angeles Center